Messages - map view · info · telemetry · weather · raw · status · beacons · messages · bulletins · browse · moving · my account
Callsign:
Show:

Loading message packets...

APRS messages are stored for 14 days. It is possible to search using wildcards (*?) after a prefix.

2018-12-18 07:31:59 EST: GASMWW>BOMGAS: for Wednesday
2018-12-18 07:31:59 EST: WCWMWW>BOMWCW: Strong Wind Warning for coastal waters between North West
2018-12-18 07:31:59 EST: WCWMWW>BOMWCW: Cape and Jurien Bay and between Two Rocks and Dawesville
2018-12-18 07:31:59 EST: WCWMWW>BOMWCW: for Wednesday
2018-12-18 07:31:59 EST: WLWMWW>BOM_WARN: 191600z,WIND,WA_MW005>007-009
2018-12-18 07:31:59 EST: WLWMWW>BOMWLW: Strong Wind Warning for coastal waters between North West
2018-12-18 07:31:59 EST: WLWMWW>BOMWLW: Cape and Jurien Bay and between Two Rocks and Dawesville
2018-12-18 07:31:59 EST: WLWMWW>BOMWLW: for Wednesday
2018-12-18 07:32:39 EST: KE4AZZ>CQ: Greetings Earthlings de KE4AZZ el87 73
2018-12-18 07:33:17 EST: FW0690>FW0690: UPTM.2 days, 17:00:08
2018-12-18 07:33:30 EST: 9W2ATR-5>9W2XIK-10: salam,...
2018-12-18 07:34:13 EST: DO1NGT>DB0FEU-1: 73 de DO1NGT
2018-12-18 07:35:14 EST: DO1NGT>DB0FEU-1: 73 de DO1NGT
2018-12-18 07:35:30 EST: G0RSQ>G4FKH: A,-101.6,-105.8,-107.4,B,-101.1,-102.5,-103.7,C,-107,-114.7,-115.9,D,-103.4,-106.6,-107.7,E,-109.5,-112.5,-113.8
2018-12-18 07:35:41 EST: SHLBTP>SHLBTP: Info - Cabinet Temp = 47.8F Vcc = 13.6V
2018-12-18 07:36:10 EST: EX0CK-10>EX0CK-1: Hello from me EX0CK
2018-12-18 07:36:15 EST: DO1NGT>DB0FEU-1: 73 de DO1NGT
2018-12-18 07:36:31 EST: LU1HVK-1>APRS: lu1hvk@qsl.net Saludos de Leones - Cordoba AR...
2018-12-18 07:37:33 EST: KJ4DXK-GD>KJ4ERJ-12: # logresp KJ4DXK-GD verified, server T2VAN
2018-12-18 07:38:00 EST: N7QME-2>N7QME: hum 79 76 99 87 69 74 79 62
2018-12-18 07:38:17 EST: FW0690>FW0690: ZBRT.PVar:-2, PLst:10272
2018-12-18 07:38:23 EST: DC5WP-5>DC5WP-7: Versuch
2018-12-18 07:40:01 EST: VK2GJ-2>VK2GJ-7: Directs=VK2BWI-3 VK2RHR-1
2018-12-18 07:40:35 EST: DB0TS-10>DB0TS-9: T#001,000,000,000,000,000,00000000,Test
2018-12-18 07:40:38 EST: DF4OR>LX0KA-10: Hi. For contact pse visit www.df4or.de
2018-12-18 07:41:12 EST: N7QME-15>N7QME: 13.46 it 53 h 62 t1 52 h 91 t2 54 h 78 o 50.0 1000 1000
2018-12-18 07:41:15 EST: QMWMWW>BOM_CANCL: 181400z,WIND,QLD_MW008>009
2018-12-18 07:41:15 EST: QMWMWW>BOMQMW: Cancellation of Wind Warning for coastal waters between
2018-12-18 07:41:15 EST: QMWMWW>BOMQMW: Bowen and Burnett Heads for Tuesday
2018-12-18 07:41:35 EST: JF0WBW-9>JH0WYT-9: ge
2018-12-18 07:41:36 EST: KP4KR>KP4RF-12: Saludos de KP4KR!
2018-12-18 07:42:37 EST: LU1HVK-1>APRS: lu1hvk@qsl.net Saludos de Leones - Cordoba AR...
2018-12-18 07:42:43 EST: JF0WBW-9>JH0WYT-9: ge
2018-12-18 07:42:46 EST: JF0WBW-9>JG0BGW-9: ge
2018-12-18 07:42:50 EST: KP4KR>KP4RF-12: Saludos de KP4KR!
2018-12-18 07:43:35 EST: DARSTW>BOM_WARN: 181353z,TSTORM,NT_PW001-005
2018-12-18 07:43:35 EST: GRESTW>BOM_WARN: 181353z,TSTORM,NT_PW001-005
2018-12-18 07:43:35 EST: DARSTW>BOMDAR: Severe Thunderstorm Warning for Damaging Winds for Daly and
2018-12-18 07:43:35 EST: GRESTW>BOMGRE: Severe Thunderstorm Warning for Damaging Winds for Daly and
2018-12-18 07:43:35 EST: DARSTW>BOMDAR: Gregory forecast districts
2018-12-18 07:43:35 EST: GRESTW>BOMGRE: Gregory forecast districts
2018-12-18 07:43:36 EST: CARSTW>BOM_CANCL: 181353z,TSTORM,NT_PW004
2018-12-18 07:43:36 EST: CARSTW>BOMCAR: Cancellation of Severe Thunderstorm Warning for Carpentaria
2018-12-18 07:43:36 EST: CARSTW>BOMCAR: forecast district
2018-12-18 07:43:52 EST: JF0WBW-9>JH0WYT-9: ge
2018-12-18 07:43:54 EST: KP4KR>KP4RF-12: Saludos de KP4KR!
2018-12-18 07:44:14 EST: WLNK-1>N9UUP-9: You have 5 Winlink mail messages pending
2018-12-18 07:44:19 EST: DO1NGT>DB0FEU-1: 73 de DO1NGT
2018-12-18 07:44:27 EST: VK2GJ-2>VK2GJ-7: Directs=VK2BWI-3
2018-12-18 07:44:58 EST: KP4KR>KP4RF-12: Saludos de KP4KR!
< previous
FAQ · Blog · Discussion group · Linking to aprs.fi · AIS sites · Service status · Database statistics · Advertising on aprs.fi · Technical details · API · Change log · Planned changes · Credits and thanks · Terms Of Service · iPhone/iPad APRS